createdAt,value
2022-11-16T00:06:08.270Z,35.90
2022-11-16T00:13:10.025Z,37.22
2022-11-16T00:20:12.033Z,44.25
2022-11-16T00:27:13.782Z,34.50
2022-11-16T00:34:15.565Z,29.85
2022-11-16T00:41:17.288Z,35.10
2022-11-16T00:48:19.193Z,39.63
2022-11-16T00:55:21.149Z,31.98
2022-11-16T01:02:23.116Z,30.13
2022-11-16T01:09:24.948Z,27.02
2022-11-16T01:16:26.881Z,37.40
2022-11-16T01:23:28.615Z,31.58
2022-11-16T01:30:30.446Z,30.45
2022-11-16T01:37:32.290Z,32.40
2022-11-16T01:44:34.239Z,43.03
2022-11-16T01:51:36.905Z,32.03
2022-11-16T01:58:38.792Z,35.65
2022-11-16T02:05:43.581Z,36.83
2022-11-16T02:12:48.453Z,30.77
2022-11-16T02:19:56.618Z,35.20
2022-11-16T02:27:15.654Z,30.08
2022-11-16T02:34:18.464Z,29.13
2022-11-16T02:41:22.105Z,23.77
2022-11-16T02:48:26.337Z,22.90
2022-11-16T02:55:29.221Z,24.40
2022-11-16T03:02:43.409Z,21.95
2022-11-16T03:09:46.767Z,22.50
2022-11-16T03:16:53.977Z,14.27
2022-11-16T03:23:56.029Z,12.73
2022-11-16T03:31:30.368Z,18.73
2022-11-16T03:38:34.088Z,7.50
2022-11-16T03:45:36.858Z,4.07
2022-11-16T03:52:38.888Z,7.03
2022-11-16T03:59:40.692Z,4.00
2022-11-16T04:07:00.934Z,4.32
2022-11-16T04:14:23.084Z,4.72
2022-11-16T04:21:45.198Z,3.65
2022-11-16T04:28:47.005Z,3.53
2022-11-16T04:36:07.432Z,2.75
2022-11-16T04:43:09.145Z,3.42
2022-11-16T04:50:11.142Z,2.67
2022-11-16T04:57:13.046Z,2.72
2022-11-16T05:04:14.900Z,4.70
2022-11-16T05:11:16.642Z,2.75
2022-11-16T05:18:18.601Z,2.22
2022-11-16T05:25:20.368Z,2.80
2022-11-16T05:32:23.019Z,3.25
2022-11-16T05:39:25.290Z,2.65
2022-11-16T05:46:27.239Z,3.63
2022-11-16T05:53:29.006Z,2.78
2022-11-16T06:00:30.781Z,3.10
2022-11-16T06:07:32.795Z,2.95
2022-11-16T06:14:34.715Z,3.58
2022-11-16T06:21:36.553Z,3.97
2022-11-16T06:28:38.777Z,3.10
2022-11-16T06:35:40.616Z,7.85
2022-11-16T06:42:42.594Z,3.67
2022-11-16T06:49:44.435Z,3.95
2022-11-16T06:56:46.409Z,6.95
2022-11-16T07:03:48.299Z,3.92
2022-11-16T07:10:50.017Z,12.25
2022-11-16T07:17:51.746Z,3.70
2022-11-16T07:24:53.680Z,3.70
2022-11-16T07:31:56.332Z,3.65
2022-11-16T07:38:58.164Z,3.00
2022-11-16T07:46:44.665Z,2.83
2022-11-16T07:53:29.338Z,4.10
2022-11-16T08:00:31.095Z,2.10
2022-11-16T08:07:33.633Z,2.63
2022-11-16T08:14:35.448Z,4.38
2022-11-16T08:21:37.080Z,2.10
2022-11-16T08:28:38.899Z,3.17
2022-11-16T08:35:40.784Z,3.08
2022-11-16T08:42:43.982Z,2.60
2022-11-16T08:49:49.556Z,2.53
2022-11-16T08:56:51.559Z,2.17
2022-11-16T09:03:53.716Z,2.38
2022-11-16T09:10:55.541Z,3.65
2022-11-16T09:17:57.278Z,2.50
2022-11-16T09:24:59.631Z,2.53
2022-11-16T09:32:02.426Z,2.53
2022-11-16T09:39:30.523Z,2.35
2022-11-16T09:46:29.735Z,2.30
2022-11-16T09:53:31.697Z,1.92
2022-11-16T10:00:35.339Z,2.60
2022-11-16T10:07:42.627Z,2.40
2022-11-16T10:14:50.416Z,3.38
2022-11-16T10:22:11.098Z,6.35
2022-11-16T10:29:29.503Z,2.35
2022-11-16T10:36:33.088Z,2.17
2022-11-16T10:43:36.126Z,2.20
2022-11-16T10:50:38.058Z,2.03
2022-11-16T10:57:58.552Z,2.25
2022-11-16T11:05:08.450Z,2.25
2022-11-16T11:12:38.160Z,6.53
2022-11-16T11:19:40.698Z,2.60
2022-11-16T11:26:43.199Z,4.50
2022-11-16T11:34:05.384Z,2.47
2022-11-16T11:41:18.797Z,2.58
2022-11-16T11:48:26.686Z,2.25
2022-11-16T11:55:28.918Z,2.40
2022-11-16T12:02:59.991Z,2.35
2022-11-16T12:10:02.203Z,2.95
2022-11-16T12:17:08.616Z,2.70
2022-11-16T12:24:17.647Z,2.42
2022-11-16T12:31:22.284Z,2.70
2022-11-16T12:38:36.414Z,2.60
2022-11-16T12:45:48.295Z,2.30
2022-11-16T12:52:53.019Z,3.42
2022-11-16T13:00:01.238Z,2.83
2022-11-16T13:07:10.867Z,2.65
2022-11-16T13:14:42.105Z,2.83
2022-11-16T13:22:03.885Z,3.10
2022-11-16T13:29:11.599Z,2.70
2022-11-16T13:36:31.735Z,2.85
2022-11-16T13:43:33.419Z,2.80
2022-11-16T13:50:38.041Z,2.92
2022-11-16T13:57:42.076Z,3.50
2022-11-16T14:04:56.335Z,4.35
2022-11-16T14:12:18.094Z,6.43
2022-11-16T14:19:38.745Z,4.32
2022-11-16T14:27:03.778Z,3.40
2022-11-16T14:34:05.666Z,4.05
2022-11-16T14:41:12.571Z,5.82
2022-11-16T14:48:15.961Z,4.22
2022-11-16T14:55:24.890Z,4.03
2022-11-16T15:02:27.658Z,5.10
2022-11-16T15:09:31.448Z,5.32
2022-11-16T15:16:33.344Z,4.78
2022-11-16T15:24:01.971Z,4.72
2022-11-16T15:31:14.421Z,7.72
2022-11-16T15:38:19.403Z,6.35
2022-11-16T15:45:26.169Z,7.32
2022-11-16T15:52:44.861Z,5.38
2022-11-16T15:59:51.179Z,6.20
2022-11-16T16:06:54.436Z,7.13
2022-11-16T16:13:58.153Z,4.82
2022-11-16T16:21:02.678Z,6.25
2022-11-16T16:28:06.051Z,6.57
2022-11-16T16:35:15.167Z,6.15
2022-11-16T16:42:17.763Z,8.03
2022-11-16T16:49:19.644Z,5.60
2022-11-16T16:56:21.624Z,6.07
2022-11-16T17:03:23.803Z,5.45
2022-11-16T17:10:28.942Z,5.90
2022-11-16T17:17:32.098Z,8.75
2022-11-16T17:24:35.227Z,7.47
2022-11-16T17:31:58.434Z,7.85
2022-11-16T17:39:01.647Z,6.63
2022-11-16T17:46:07.264Z,8.23
2022-11-16T17:53:09.883Z,7.63
2022-11-16T18:00:12.460Z,7.97
2022-11-16T18:07:14.592Z,8.68
2022-11-16T18:14:16.994Z,6.97
2022-11-16T18:21:20.918Z,7.93
2022-11-16T18:28:23.207Z,7.30
2022-11-16T18:35:25.408Z,6.35
2022-11-16T18:42:28.023Z,4.55
2022-11-16T18:49:30.423Z,5.50
2022-11-16T18:56:32.762Z,5.57
2022-11-16T19:03:35.907Z,5.68
2022-11-16T19:10:39.223Z,5.93
2022-11-16T19:18:06.348Z,7.55
2022-11-16T19:25:06.109Z,8.50
2022-11-16T19:32:16.105Z,6.22
2022-11-16T19:39:19.345Z,6.20
2022-11-16T19:46:21.857Z,5.68
2022-11-16T19:53:24.164Z,7.97
2022-11-16T20:00:26.766Z,6.68
2022-11-16T20:07:29.198Z,15.18
2022-11-16T20:14:31.546Z,10.52
2022-11-16T20:21:35.027Z,5.90
2022-11-16T20:28:37.638Z,5.80
2022-11-16T20:35:39.950Z,7.45
2022-11-16T20:42:42.735Z,6.93
2022-11-16T20:49:44.948Z,9.00
2022-11-16T20:56:48.505Z,6.90
2022-11-16T21:03:51.520Z,10.90
2022-11-16T21:10:53.951Z,8.25
2022-11-16T21:17:55.734Z,7.70
2022-11-16T21:24:57.605Z,9.35
2022-11-16T21:31:59.818Z,7.80
2022-11-16T21:39:01.720Z,8.85
2022-11-16T21:46:14.325Z,8.55
2022-11-16T21:53:16.141Z,6.05
2022-11-16T22:00:18.825Z,6.30
2022-11-16T22:07:38.898Z,5.05
2022-11-16T22:14:40.698Z,6.00
2022-11-16T22:21:43.051Z,5.88
2022-11-16T22:28:45.090Z,11.35
2022-11-16T22:35:47.563Z,5.00
2022-11-16T22:42:49.455Z,7.65
2022-11-16T22:49:51.247Z,4.28
2022-11-16T22:56:53.163Z,5.63
2022-11-16T23:03:55.788Z,5.32
2022-11-16T23:11:28.106Z,4.63
2022-11-16T23:18:30.435Z,6.75
2022-11-16T23:25:51.544Z,5.22
2022-11-16T23:32:53.517Z,5.00
2022-11-16T23:39:55.324Z,6.20
2022-11-16T23:46:57.083Z,5.05
2022-11-16T23:53:58.858Z,4.93
